sensor_id;sensor_type;location;lat;lon;timestamp;P1;durP1;ratioP1;P2;durP2;ratioP2
24587;SDS011;12744;52.270;9.746;2022-08-18T00:00:01;7.30;;;5.00;;
24587;SDS011;12744;52.270;9.746;2022-08-18T00:02:32;4.97;;;4.15;;
24587;SDS011;12744;52.270;9.746;2022-08-18T00:05:03;4.80;;;4.40;;
24587;SDS011;12744;52.270;9.746;2022-08-18T00:07:35;6.07;;;4.50;;
24587;SDS011;12744;52.270;9.746;2022-08-18T00:10:06;9.07;;;5.35;;
24587;SDS011;12744;52.270;9.746;2022-08-18T00:12:39;10.05;;;5.95;;
24587;SDS011;12744;52.270;9.746;2022-08-18T00:15:13;6.43;;;5.38;;
24587;SDS011;12744;52.270;9.746;2022-08-18T00:17:46;6.15;;;5.55;;
24587;SDS011;12744;52.270;9.746;2022-08-18T00:20:19;10.77;;;5.45;;
24587;SDS011;12744;52.270;9.746;2022-08-18T00:22:52;5.47;;;4.93;;
24587;SDS011;12744;52.270;9.746;2022-08-18T00:27:57;8.77;;;6.15;;
24587;SDS011;12744;52.270;9.746;2022-08-18T00:30:28;13.02;;;10.90;;
24587;SDS011;12744;52.270;9.746;2022-08-18T00:32:59;6.93;;;5.32;;
24587;SDS011;12744;52.270;9.746;2022-08-18T00:35:35;7.40;;;5.25;;
24587;SDS011;12744;52.270;9.746;2022-08-18T00:38:07;5.63;;;4.32;;
24587;SDS011;12744;52.270;9.746;2022-08-18T00:40:43;5.82;;;4.80;;
24587;SDS011;12744;52.270;9.746;2022-08-18T00:43:36;10.68;;;4.72;;
24587;SDS011;12744;52.270;9.746;2022-08-18T00:46:16;8.07;;;7.28;;
24587;SDS011;12744;52.270;9.746;2022-08-18T00:48:52;8.30;;;5.93;;
24587;SDS011;12744;52.270;9.746;2022-08-18T00:56:46;6.03;;;5.43;;
24587;SDS011;12744;52.270;9.746;2022-08-18T01:02:19;7.90;;;5.65;;
24587;SDS011;12744;52.270;9.746;2022-08-18T01:04:58;6.13;;;5.32;;
24587;SDS011;12744;52.270;9.746;2022-08-18T01:07:35;5.82;;;5.22;;
24587;SDS011;12744;52.270;9.746;2022-08-18T01:10:16;8.00;;;6.40;;
24587;SDS011;12744;52.270;9.746;2022-08-18T01:12:54;7.35;;;6.65;;
24587;SDS011;12744;52.270;9.746;2022-08-18T01:15:27;12.43;;;9.52;;
24587;SDS011;12744;52.270;9.746;2022-08-18T01:18:00;11.07;;;8.75;;
24587;SDS011;12744;52.270;9.746;2022-08-18T01:21:03;9.63;;;6.50;;
24587;SDS011;12744;52.270;9.746;2022-08-18T01:24:03;15.98;;;14.40;;
24587;SDS011;12744;52.270;9.746;2022-08-18T01:26:37;11.77;;;7.28;;
24587;SDS011;12744;52.270;9.746;2022-08-18T01:29:12;11.68;;;7.40;;
24587;SDS011;12744;52.270;9.746;2022-08-18T01:31:50;10.10;;;7.47;;
24587;SDS011;12744;52.270;9.746;2022-08-18T01:34:26;8.57;;;6.43;;
24587;SDS011;12744;52.270;9.746;2022-08-18T01:36:57;8.68;;;6.47;;
24587;SDS011;12744;52.270;9.746;2022-08-18T01:39:28;12.27;;;7.90;;
24587;SDS011;12744;52.270;9.746;2022-08-18T01:42:00;9.35;;;8.45;;
24587;SDS011;12744;52.270;9.746;2022-08-18T01:44:31;9.10;;;8.20;;
24587;SDS011;12744;52.270;9.746;2022-08-18T01:47:03;10.65;;;8.23;;
24587;SDS011;12744;52.270;9.746;2022-08-18T01:49:34;9.90;;;7.57;;
24587;SDS011;12744;52.270;9.746;2022-08-18T01:52:05;9.35;;;8.13;;
24587;SDS011;12744;52.270;9.746;2022-08-18T01:54:36;8.52;;;6.95;;
24587;SDS011;12744;52.270;9.746;2022-08-18T01:57:08;8.00;;;6.32;;
24587;SDS011;12744;52.270;9.746;2022-08-18T01:59:43;8.32;;;6.88;;
24587;SDS011;12744;52.270;9.746;2022-08-18T02:02:15;7.93;;;6.63;;
24587;SDS011;12744;52.270;9.746;2022-08-18T02:05:00;7.88;;;7.00;;
24587;SDS011;12744;52.270;9.746;2022-08-18T02:07:34;12.23;;;10.40;;
24587;SDS011;12744;52.270;9.746;2022-08-18T02:10:08;12.90;;;8.73;;
24587;SDS011;12744;52.270;9.746;2022-08-18T02:12:40;11.98;;;10.68;;
24587;SDS011;12744;52.270;9.746;2022-08-18T02:15:12;17.15;;;13.13;;
24587;SDS011;12744;52.270;9.746;2022-08-18T02:17:44;16.30;;;12.88;;
24587;SDS011;12744;52.270;9.746;2022-08-18T02:20:17;16.38;;;13.02;;
24587;SDS011;12744;52.270;9.746;2022-08-18T02:22:49;24.73;;;12.77;;
24587;SDS011;12744;52.270;9.746;2022-08-18T02:25:20;18.75;;;11.85;;
24587;SDS011;12744;52.270;9.746;2022-08-18T02:27:52;15.32;;;11.50;;
24587;SDS011;12744;52.270;9.746;2022-08-18T02:30:23;17.02;;;12.00;;
24587;SDS011;12744;52.270;9.746;2022-08-18T02:32:56;21.30;;;15.98;;
24587;SDS011;12744;52.270;9.746;2022-08-18T02:35:27;18.02;;;13.82;;
24587;SDS011;12744;52.270;9.746;2022-08-18T02:37:58;19.63;;;12.20;;
24587;SDS011;12744;52.270;9.746;2022-08-18T02:40:30;21.13;;;16.02;;
24587;SDS011;12744;52.270;9.746;2022-08-18T02:43:05;21.88;;;16.45;;
24587;SDS011;12744;52.270;9.746;2022-08-18T02:45:39;19.02;;;15.18;;
24587;SDS011;12744;52.270;9.746;2022-08-18T02:48:10;21.95;;;17.65;;
24587;SDS011;12744;52.270;9.746;2022-08-18T02:50:41;26.27;;;19.52;;
24587;SDS011;12744;52.270;9.746;2022-08-18T02:53:18;19.92;;;15.38;;
24587;SDS011;12744;52.270;9.746;2022-08-18T02:55:52;23.15;;;17.65;;
24587;SDS011;12744;52.270;9.746;2022-08-18T02:58:23;23.52;;;17.95;;
24587;SDS011;12744;52.270;9.746;2022-08-18T03:00:54;23.33;;;15.75;;
24587;SDS011;12744;52.270;9.746;2022-08-18T03:03:25;17.38;;;14.13;;
24587;SDS011;12744;52.270;9.746;2022-08-18T03:05:56;25.05;;;17.98;;
24587;SDS011;12744;52.270;9.746;2022-08-18T03:08:27;19.60;;;14.88;;
24587;SDS011;12744;52.270;9.746;2022-08-18T03:10:58;22.25;;;15.35;;
24587;SDS011;12744;52.270;9.746;2022-08-18T03:13:29;13.85;;;11.38;;
24587;SDS011;12744;52.270;9.746;2022-08-18T03:16:00;16.65;;;11.90;;
24587;SDS011;12744;52.270;9.746;2022-08-18T03:18:32;20.50;;;14.55;;
24587;SDS011;12744;52.270;9.746;2022-08-18T03:21:14;18.85;;;16.52;;
24587;SDS011;12744;52.270;9.746;2022-08-18T03:23:47;20.75;;;15.82;;
24587;SDS011;12744;52.270;9.746;2022-08-18T03:26:21;23.80;;;15.88;;
24587;SDS011;12744;52.270;9.746;2022-08-18T03:28:53;23.63;;;20.50;;
24587;SDS011;12744;52.270;9.746;2022-08-18T03:31:25;22.40;;;17.65;;
24587;SDS011;12744;52.270;9.746;2022-08-18T03:36:30;28.50;;;25.15;;
24587;SDS011;12744;52.270;9.746;2022-08-18T03:39:04;21.50;;;17.15;;
24587;SDS011;12744;52.270;9.746;2022-08-18T03:41:37;25.38;;;22.40;;
24587;SDS011;12744;52.270;9.746;2022-08-18T03:44:11;28.95;;;22.75;;
24587;SDS011;12744;52.270;9.746;2022-08-18T03:46:44;24.73;;;18.90;;
24587;SDS011;12744;52.270;9.746;2022-08-18T03:49:15;25.83;;;21.33;;
24587;SDS011;12744;52.270;9.746;2022-08-18T03:51:47;26.17;;;19.40;;
24587;SDS011;12744;52.270;9.746;2022-08-18T03:54:19;25.38;;;19.75;;
24587;SDS011;12744;52.270;9.746;2022-08-18T03:56:50;31.10;;;21.88;;
24587;SDS011;12744;52.270;9.746;2022-08-18T03:59:23;29.60;;;24.60;;
24587;SDS011;12744;52.270;9.746;2022-08-18T04:01:55;29.20;;;21.00;;
24587;SDS011;12744;52.270;9.746;2022-08-18T04:04:27;23.73;;;17.92;;
24587;SDS011;12744;52.270;9.746;2022-08-18T04:07:00;26.85;;;22.55;;
24587;SDS011;12744;52.270;9.746;2022-08-18T04:09:38;28.05;;;21.70;;
24587;SDS011;12744;52.270;9.746;2022-08-18T04:12:10;29.67;;;23.17;;
24587;SDS011;12744;52.270;9.746;2022-08-18T04:14:44;27.13;;;20.13;;
24587;SDS011;12744;52.270;9.746;2022-08-18T04:17:18;32.28;;;22.92;;
24587;SDS011;12744;52.270;9.746;2022-08-18T04:19:54;36.25;;;29.25;;
24587;SDS011;12744;52.270;9.746;2022-08-18T04:22:26;38.28;;;29.55;;
24587;SDS011;12744;52.270;9.746;2022-08-18T04:24:57;30.95;;;20.90;;
24587;SDS011;12744;52.270;9.746;2022-08-18T04:27:28;27.95;;;22.38;;
24587;SDS011;12744;52.270;9.746;2022-08-18T04:29:59;21.80;;;16.58;;
24587;SDS011;12744;52.270;9.746;2022-08-18T04:32:30;29.30;;;22.45;;
24587;SDS011;12744;52.270;9.746;2022-08-18T04:35:01;27.38;;;20.20;;
24587;SDS011;12744;52.270;9.746;2022-08-18T04:37:35;27.50;;;21.10;;
24587;SDS011;12744;52.270;9.746;2022-08-18T04:40:07;22.83;;;17.58;;
24587;SDS011;12744;52.270;9.746;2022-08-18T04:42:39;24.65;;;18.40;;
24587;SDS011;12744;52.270;9.746;2022-08-18T04:45:10;22.98;;;17.30;;
24587;SDS011;12744;52.270;9.746;2022-08-18T04:47:41;23.80;;;18.25;;
24587;SDS011;12744;52.270;9.746;2022-08-18T04:50:12;20.60;;;16.73;;
24587;SDS011;12744;52.270;9.746;2022-08-18T04:52:43;25.58;;;21.00;;
24587;SDS011;12744;52.270;9.746;2022-08-18T04:55:33;32.22;;;22.20;;
24587;SDS011;12744;52.270;9.746;2022-08-18T04:58:04;27.17;;;17.58;;
24587;SDS011;12744;52.270;9.746;2022-08-18T05:00:35;29.73;;;22.48;;
24587;SDS011;12744;52.270;9.746;2022-08-18T05:03:06;30.75;;;21.90;;
24587;SDS011;12744;52.270;9.746;2022-08-18T05:05:37;25.48;;;20.15;;
24587;SDS011;12744;52.270;9.746;2022-08-18T05:08:08;27.00;;;20.50;;
24587;SDS011;12744;52.270;9.746;2022-08-18T05:10:39;28.50;;;21.08;;
24587;SDS011;12744;52.270;9.746;2022-08-18T05:13:11;26.70;;;19.95;;
24587;SDS011;12744;52.270;9.746;2022-08-18T05:15:44;24.35;;;19.38;;
24587;SDS011;12744;52.270;9.746;2022-08-18T05:18:15;27.00;;;21.67;;
24587;SDS011;12744;52.270;9.746;2022-08-18T05:20:50;24.70;;;18.98;;
24587;SDS011;12744;52.270;9.746;2022-08-18T05:23:22;30.35;;;23.92;;
24587;SDS011;12744;52.270;9.746;2022-08-18T05:26:02;29.42;;;23.33;;
24587;SDS011;12744;52.270;9.746;2022-08-18T05:28:33;30.08;;;21.10;;
24587;SDS011;12744;52.270;9.746;2022-08-18T05:33:38;36.30;;;28.17;;
24587;SDS011;12744;52.270;9.746;2022-08-18T05:41:52;36.78;;;29.48;;
24587;SDS011;12744;52.270;9.746;2022-08-18T05:44:34;35.33;;;29.67;;
24587;SDS011;12744;52.270;9.746;2022-08-18T05:47:14;40.25;;;31.15;;
24587;SDS011;12744;52.270;9.746;2022-08-18T05:49:49;35.33;;;28.25;;
24587;SDS011;12744;52.270;9.746;2022-08-18T05:52:24;37.47;;;30.57;;
24587;SDS011;12744;52.270;9.746;2022-08-18T05:55:05;42.53;;;38.15;;
24587;SDS011;12744;52.270;9.746;2022-08-18T05:58:00;48.83;;;43.75;;
24587;SDS011;12744;52.270;9.746;2022-08-18T06:00:35;50.35;;;42.47;;
24587;SDS011;12744;52.270;9.746;2022-08-18T06:03:19;62.63;;;55.83;;
24587;SDS011;12744;52.270;9.746;2022-08-18T06:06:00;41.97;;;36.38;;
24587;SDS011;12744;52.270;9.746;2022-08-18T06:08:42;47.00;;;39.08;;
24587;SDS011;12744;52.270;9.746;2022-08-18T06:11:19;49.05;;;41.72;;
24587;SDS011;12744;52.270;9.746;2022-08-18T06:13:50;53.53;;;47.83;;
24587;SDS011;12744;52.270;9.746;2022-08-18T06:21:53;40.47;;;31.85;;
24587;SDS011;12744;52.270;9.746;2022-08-18T06:24:37;43.47;;;32.85;;
24587;SDS011;12744;52.270;9.746;2022-08-18T06:30:12;42.70;;;32.63;;
24587;SDS011;12744;52.270;9.746;2022-08-18T06:52:57;49.85;;;42.80;;
24587;SDS011;12744;52.270;9.746;2022-08-18T06:55:40;41.95;;;33.22;;
24587;SDS011;12744;52.270;9.746;2022-08-18T07:03:43;58.78;;;52.47;;
24587;SDS011;12744;52.270;9.746;2022-08-18T07:08:51;106.28;;;96.63;;
24587;SDS011;12744;52.270;9.746;2022-08-18T07:11:29;57.85;;;51.92;;
24587;SDS011;12744;52.270;9.746;2022-08-18T07:14:13;51.58;;;43.88;;
24587;SDS011;12744;52.270;9.746;2022-08-18T07:17:19;68.63;;;61.60;;
24587;SDS011;12744;52.270;9.746;2022-08-18T07:20:22;54.25;;;48.30;;
24587;SDS011;12744;52.270;9.746;2022-08-18T07:22:58;46.65;;;38.45;;
24587;SDS011;12744;52.270;9.746;2022-08-18T07:25:31;43.13;;;33.72;;
24587;SDS011;12744;52.270;9.746;2022-08-18T07:31:37;46.15;;;33.40;;
24587;SDS011;12744;52.270;9.746;2022-08-18T07:45:18;46.75;;;35.97;;
24587;SDS011;12744;52.270;9.746;2022-08-18T07:48:12;47.03;;;38.33;;
24587;SDS011;12744;52.270;9.746;2022-08-18T07:56:26;46.92;;;33.88;;
24587;SDS011;12744;52.270;9.746;2022-08-18T08:02:21;43.58;;;33.63;;
24587;SDS011;12744;52.270;9.746;2022-08-18T08:07:42;38.42;;;29.27;;
24587;SDS011;12744;52.270;9.746;2022-08-18T08:16:48;39.75;;;29.63;;
24587;SDS011;12744;52.270;9.746;2022-08-18T08:22:52;38.80;;;29.60;;
24587;SDS011;12744;52.270;9.746;2022-08-18T08:25:23;37.03;;;28.35;;
24587;SDS011;12744;52.270;9.746;2022-08-18T08:28:07;39.97;;;28.02;;
24587;SDS011;12744;52.270;9.746;2022-08-18T08:33:35;35.58;;;29.05;;
24587;SDS011;12744;52.270;9.746;2022-08-18T08:36:17;35.88;;;26.33;;
24587;SDS011;12744;52.270;9.746;2022-08-18T08:39:00;38.83;;;26.13;;
24587;SDS011;12744;52.270;9.746;2022-08-18T08:41:37;32.25;;;24.98;;
24587;SDS011;12744;52.270;9.746;2022-08-18T08:44:31;53.05;;;47.55;;
24587;SDS011;12744;52.270;9.746;2022-08-18T08:47:09;29.63;;;22.23;;
24587;SDS011;12744;52.270;9.746;2022-08-18T08:50:03;38.15;;;20.17;;
24587;SDS011;12744;52.270;9.746;2022-08-18T08:53:01;30.77;;;23.83;;
24587;SDS011;12744;52.270;9.746;2022-08-18T08:55:43;33.65;;;24.80;;
24587;SDS011;12744;52.270;9.746;2022-08-18T08:58:42;31.48;;;23.85;;
24587;SDS011;12744;52.270;9.746;2022-08-18T09:01:38;30.17;;;22.02;;
24587;SDS011;12744;52.270;9.746;2022-08-18T09:13:47;36.00;;;26.50;;
24587;SDS011;12744;52.270;9.746;2022-08-18T09:25:11;28.92;;;22.58;;
24587;SDS011;12744;52.270;9.746;2022-08-18T09:39:32;28.52;;;24.02;;
24587;SDS011;12744;52.270;9.746;2022-08-18T09:45:07;40.00;;;35.92;;
24587;SDS011;12744;52.270;9.746;2022-08-18T09:50:32;33.25;;;29.70;;
24587;SDS011;12744;52.270;9.746;2022-08-18T09:53:14;85.35;;;78.03;;
24587;SDS011;12744;52.270;9.746;2022-08-18T09:56:02;48.35;;;43.90;;
24587;SDS011;12744;52.270;9.746;2022-08-18T09:58:49;29.15;;;22.73;;
24587;SDS011;12744;52.270;9.746;2022-08-18T10:13:09;27.73;;;23.75;;
24587;SDS011;12744;52.270;9.746;2022-08-18T10:19:08;25.95;;;23.00;;
24587;SDS011;12744;52.270;9.746;2022-08-18T10:27:48;31.15;;;27.63;;
24587;SDS011;12744;52.270;9.746;2022-08-18T10:31:08;27.98;;;25.08;;
24587;SDS011;12744;52.270;9.746;2022-08-18T10:33:59;24.13;;;21.52;;
24587;SDS011;12744;52.270;9.746;2022-08-18T10:36:50;41.05;;;37.38;;
24587;SDS011;12744;52.270;9.746;2022-08-18T10:39:47;68.93;;;63.33;;
24587;SDS011;12744;52.270;9.746;2022-08-18T10:42:26;52.58;;;48.22;;
24587;SDS011;12744;52.270;9.746;2022-08-18T10:45:05;24.15;;;21.60;;
24587;SDS011;12744;52.270;9.746;2022-08-18T10:47:37;27.02;;;24.27;;
24587;SDS011;12744;52.270;9.746;2022-08-18T10:50:17;17.38;;;15.60;;
24587;SDS011;12744;52.270;9.746;2022-08-18T10:55:49;22.13;;;19.73;;
24587;SDS011;12744;52.270;9.746;2022-08-18T11:09:42;41.90;;;38.40;;
24587;SDS011;12744;52.270;9.746;2022-08-18T11:12:14;19.50;;;14.05;;
24587;SDS011;12744;52.270;9.746;2022-08-18T11:14:51;14.40;;;12.60;;
24587;SDS011;12744;52.270;9.746;2022-08-18T11:17:46;12.70;;;11.40;;
24587;SDS011;12744;52.270;9.746;2022-08-18T11:20:31;20.08;;;18.25;;
24587;SDS011;12744;52.270;9.746;2022-08-18T11:23:02;50.78;;;46.80;;
24587;SDS011;12744;52.270;9.746;2022-08-18T11:25:35;35.30;;;32.33;;
24587;SDS011;12744;52.270;9.746;2022-08-18T11:28:15;21.67;;;19.63;;
24587;SDS011;12744;52.270;9.746;2022-08-18T11:30:50;67.65;;;62.38;;
24587;SDS011;12744;52.270;9.746;2022-08-18T11:33:24;24.00;;;21.92;;
24587;SDS011;12744;52.270;9.746;2022-08-18T11:35:55;94.18;;;86.75;;
24587;SDS011;12744;52.270;9.746;2022-08-18T11:38:28;29.15;;;26.73;;
24587;SDS011;12744;52.270;9.746;2022-08-18T11:43:46;77.20;;;70.85;;
24587;SDS011;12744;52.270;9.746;2022-08-18T11:48:53;10.55;;;9.45;;
24587;SDS011;12744;52.270;9.746;2022-08-18T11:51:25;14.02;;;12.35;;
24587;SDS011;12744;52.270;9.746;2022-08-18T11:54:00;12.35;;;11.05;;
24587;SDS011;12744;52.270;9.746;2022-08-18T11:56:35;50.80;;;46.97;;
24587;SDS011;12744;52.270;9.746;2022-08-18T11:59:07;17.02;;;15.63;;
24587;SDS011;12744;52.270;9.746;2022-08-18T12:02:06;21.75;;;19.70;;
24587;SDS011;12744;52.270;9.746;2022-08-18T12:04:38;10.93;;;9.83;;
24587;SDS011;12744;52.270;9.746;2022-08-18T12:07:15;12.48;;;11.18;;
24587;SDS011;12744;52.270;9.746;2022-08-18T12:12:58;24.15;;;22.30;;
24587;SDS011;12744;52.270;9.746;2022-08-18T12:15:35;14.15;;;13.00;;
24587;SDS011;12744;52.270;9.746;2022-08-18T12:18:08;17.75;;;16.27;;
24587;SDS011;12744;52.270;9.746;2022-08-18T12:20:39;14.20;;;12.75;;
24587;SDS011;12744;52.270;9.746;2022-08-18T12:23:10;11.07;;;10.05;;
24587;SDS011;12744;52.270;9.746;2022-08-18T12:25:41;51.55;;;47.63;;
24587;SDS011;12744;52.270;9.746;2022-08-18T12:28:15;10.80;;;9.70;;
24587;SDS011;12744;52.270;9.746;2022-08-18T12:30:46;9.90;;;8.90;;
24587;SDS011;12744;52.270;9.746;2022-08-18T12:33:17;16.05;;;13.55;;
24587;SDS011;12744;52.270;9.746;2022-08-18T12:35:48;32.67;;;29.98;;
24587;SDS011;12744;52.270;9.746;2022-08-18T12:38:19;15.48;;;14.27;;
24587;SDS011;12744;52.270;9.746;2022-08-18T12:40:50;34.97;;;32.15;;
24587;SDS011;12744;52.270;9.746;2022-08-18T12:43:22;43.75;;;40.67;;
24587;SDS011;12744;52.270;9.746;2022-08-18T12:45:53;35.67;;;32.85;;
24587;SDS011;12744;52.270;9.746;2022-08-18T12:48:25;22.98;;;21.08;;
24587;SDS011;12744;52.270;9.746;2022-08-18T12:50:59;18.08;;;16.60;;
24587;SDS011;12744;52.270;9.746;2022-08-18T12:53:31;12.10;;;10.98;;
24587;SDS011;12744;52.270;9.746;2022-08-18T12:56:04;11.77;;;10.65;;
24587;SDS011;12744;52.270;9.746;2022-08-18T12:58:54;7.97;;;7.20;;
24587;SDS011;12744;52.270;9.746;2022-08-18T13:01:27;10.07;;;9.07;;
24587;SDS011;12744;52.270;9.746;2022-08-18T13:03:58;12.10;;;10.93;;
24587;SDS011;12744;52.270;9.746;2022-08-18T13:06:32;13.33;;;12.10;;
24587;SDS011;12744;52.270;9.746;2022-08-18T13:09:06;9.65;;;8.68;;
24587;SDS011;12744;52.270;9.746;2022-08-18T13:11:37;9.68;;;8.75;;
24587;SDS011;12744;52.270;9.746;2022-08-18T13:14:08;10.93;;;7.78;;
24587;SDS011;12744;52.270;9.746;2022-08-18T13:16:54;8.00;;;7.18;;
24587;SDS011;12744;52.270;9.746;2022-08-18T13:19:25;8.90;;;7.88;;
24587;SDS011;12744;52.270;9.746;2022-08-18T13:21:57;14.30;;;13.00;;
24587;SDS011;12744;52.270;9.746;2022-08-18T13:24:28;10.10;;;9.20;;
24587;SDS011;12744;52.270;9.746;2022-08-18T13:26:59;9.57;;;8.05;;
24587;SDS011;12744;52.270;9.746;2022-08-18T13:29:32;18.08;;;16.58;;
24587;SDS011;12744;52.270;9.746;2022-08-18T13:32:03;17.23;;;15.73;;
24587;SDS011;12744;52.270;9.746;2022-08-18T13:34:38;19.33;;;17.77;;
24587;SDS011;12744;52.270;9.746;2022-08-18T13:37:09;12.77;;;11.68;;
24587;SDS011;12744;52.270;9.746;2022-08-18T13:39:40;7.47;;;6.78;;
24587;SDS011;12744;52.270;9.746;2022-08-18T13:42:11;10.13;;;8.32;;
24587;SDS011;12744;52.270;9.746;2022-08-18T13:44:42;9.10;;;8.18;;
24587;SDS011;12744;52.270;9.746;2022-08-18T13:47:13;8.93;;;8.02;;
24587;SDS011;12744;52.270;9.746;2022-08-18T13:49:44;10.52;;;9.40;;
24587;SDS011;12744;52.270;9.746;2022-08-18T13:52:15;27.35;;;25.35;;
24587;SDS011;12744;52.270;9.746;2022-08-18T13:54:47;13.18;;;11.98;;
24587;SDS011;12744;52.270;9.746;2022-08-18T13:57:18;9.52;;;8.65;;
24587;SDS011;12744;52.270;9.746;2022-08-18T13:59:49;9.77;;;8.65;;
24587;SDS011;12744;52.270;9.746;2022-08-18T14:02:21;9.35;;;8.40;;
24587;SDS011;12744;52.270;9.746;2022-08-18T14:04:52;7.78;;;7.07;;
24587;SDS011;12744;52.270;9.746;2022-08-18T14:07:25;9.40;;;7.90;;
24587;SDS011;12744;52.270;9.746;2022-08-18T14:09:56;8.98;;;8.02;;
24587;SDS011;12744;52.270;9.746;2022-08-18T14:12:28;9.48;;;8.15;;
24587;SDS011;12744;52.270;9.746;2022-08-18T14:15:00;9.93;;;7.30;;
24587;SDS011;12744;52.270;9.746;2022-08-18T14:17:31;9.90;;;9.10;;
24587;SDS011;12744;52.270;9.746;2022-08-18T14:20:03;8.07;;;7.38;;
24587;SDS011;12744;52.270;9.746;2022-08-18T14:22:55;7.43;;;6.22;;
24587;SDS011;12744;52.270;9.746;2022-08-18T14:25:46;7.32;;;6.25;;
24587;SDS011;12744;52.270;9.746;2022-08-18T14:28:35;8.15;;;7.35;;
24587;SDS011;12744;52.270;9.746;2022-08-18T14:31:07;15.32;;;14.02;;
24587;SDS011;12744;52.270;9.746;2022-08-18T14:33:38;11.45;;;10.30;;
24587;SDS011;12744;52.270;9.746;2022-08-18T14:36:10;7.68;;;6.85;;
24587;SDS011;12744;52.270;9.746;2022-08-18T14:38:41;6.40;;;5.80;;
24587;SDS011;12744;52.270;9.746;2022-08-18T14:41:13;7.78;;;7.07;;
24587;SDS011;12744;52.270;9.746;2022-08-18T14:43:44;7.53;;;6.82;;
24587;SDS011;12744;52.270;9.746;2022-08-18T14:46:16;9.95;;;8.65;;
24587;SDS011;12744;52.270;9.746;2022-08-18T14:48:50;9.50;;;8.23;;
24587;SDS011;12744;52.270;9.746;2022-08-18T14:51:21;7.43;;;6.65;;
24587;SDS011;12744;52.270;9.746;2022-08-18T14:53:53;9.07;;;7.93;;
24587;SDS011;12744;52.270;9.746;2022-08-18T14:56:24;11.20;;;7.65;;
24587;SDS011;12744;52.270;9.746;2022-08-18T14:58:55;7.88;;;7.03;;
24587;SDS011;12744;52.270;9.746;2022-08-18T15:01:26;9.20;;;8.18;;
24587;SDS011;12744;52.270;9.746;2022-08-18T15:03:57;7.82;;;7.03;;
24587;SDS011;12744;52.270;9.746;2022-08-18T15:06:28;10.57;;;9.77;;
24587;SDS011;12744;52.270;9.746;2022-08-18T15:09:00;11.65;;;10.65;;
24587;SDS011;12744;52.270;9.746;2022-08-18T15:11:31;10.65;;;8.93;;
24587;SDS011;12744;52.270;9.746;2022-08-18T15:14:03;15.27;;;10.40;;
24587;SDS011;12744;52.270;9.746;2022-08-18T15:16:34;8.88;;;8.07;;
24587;SDS011;12744;52.270;9.746;2022-08-18T15:19:06;11.60;;;10.50;;
24587;SDS011;12744;52.270;9.746;2022-08-18T15:21:37;7.95;;;7.15;;
24587;SDS011;12744;52.270;9.746;2022-08-18T15:24:26;8.23;;;6.55;;
24587;SDS011;12744;52.270;9.746;2022-08-18T15:27:15;7.78;;;7.00;;
24587;SDS011;12744;52.270;9.746;2022-08-18T15:29:46;7.10;;;6.40;;
24587;SDS011;12744;52.270;9.746;2022-08-18T15:32:19;8.30;;;5.43;;
24587;SDS011;12744;52.270;9.746;2022-08-18T15:34:50;8.07;;;7.25;;
24587;SDS011;12744;52.270;9.746;2022-08-18T15:37:21;6.15;;;5.22;;
24587;SDS011;12744;52.270;9.746;2022-08-18T15:40:00;8.65;;;6.75;;
24587;SDS011;12744;52.270;9.746;2022-08-18T15:42:53;7.25;;;5.55;;
24587;SDS011;12744;52.270;9.746;2022-08-18T15:45:27;8.93;;;8.10;;
24587;SDS011;12744;52.270;9.746;2022-08-18T15:48:01;9.23;;;8.40;;
24587;SDS011;12744;52.270;9.746;2022-08-18T15:50:33;6.90;;;5.55;;
24587;SDS011;12744;52.270;9.746;2022-08-18T15:53:04;7.35;;;6.68;;
24587;SDS011;12744;52.270;9.746;2022-08-18T15:55:36;6.80;;;6.18;;
24587;SDS011;12744;52.270;9.746;2022-08-18T16:00:41;6.10;;;4.97;;
24587;SDS011;12744;52.270;9.746;2022-08-18T16:03:17;5.85;;;4.78;;
24587;SDS011;12744;52.270;9.746;2022-08-18T16:05:51;6.80;;;6.15;;
24587;SDS011;12744;52.270;9.746;2022-08-18T16:08:24;5.95;;;5.45;;
24587;SDS011;12744;52.270;9.746;2022-08-18T16:10:55;5.75;;;4.85;;
24587;SDS011;12744;52.270;9.746;2022-08-18T16:13:26;8.40;;;6.00;;
24587;SDS011;12744;52.270;9.746;2022-08-18T16:15:58;5.68;;;5.15;;
24587;SDS011;12744;52.270;9.746;2022-08-18T16:18:30;5.50;;;5.00;;
24587;SDS011;12744;52.270;9.746;2022-08-18T16:21:02;7.85;;;4.90;;
24587;SDS011;12744;52.270;9.746;2022-08-18T16:23:41;6.10;;;5.53;;
24587;SDS011;12744;52.270;9.746;2022-08-18T16:26:17;7.55;;;4.22;;
24587;SDS011;12744;52.270;9.746;2022-08-18T16:28:49;5.03;;;4.22;;
24587;SDS011;12744;52.270;9.746;2022-08-18T16:31:22;5.07;;;4.22;;
24587;SDS011;12744;52.270;9.746;2022-08-18T16:33:57;7.95;;;4.10;;
24587;SDS011;12744;52.270;9.746;2022-08-18T16:36:29;5.55;;;4.00;;
24587;SDS011;12744;52.270;9.746;2022-08-18T16:39:00;5.15;;;4.20;;
24587;SDS011;12744;52.270;9.746;2022-08-18T16:41:31;8.63;;;4.97;;
24587;SDS011;12744;52.270;9.746;2022-08-18T16:44:02;4.95;;;3.65;;
24587;SDS011;12744;52.270;9.746;2022-08-18T16:46:33;4.40;;;4.00;;
24587;SDS011;12744;52.270;9.746;2022-08-18T16:49:04;4.38;;;3.85;;
24587;SDS011;12744;52.270;9.746;2022-08-18T16:54:08;5.10;;;4.60;;
24587;SDS011;12744;52.270;9.746;2022-08-18T16:56:39;5.30;;;4.57;;
24587;SDS011;12744;52.270;9.746;2022-08-18T16:59:11;7.82;;;7.13;;
24587;SDS011;12744;52.270;9.746;2022-08-18T17:02:00;7.10;;;5.35;;
24587;SDS011;12744;52.270;9.746;2022-08-18T17:04:50;7.97;;;5.22;;
24587;SDS011;12744;52.270;9.746;2022-08-18T17:07:21;7.70;;;5.97;;
24587;SDS011;12744;52.270;9.746;2022-08-18T17:09:52;8.73;;;7.65;;
24587;SDS011;12744;52.270;9.746;2022-08-18T17:12:26;10.45;;;9.45;;
24587;SDS011;12744;52.270;9.746;2022-08-18T17:14:58;8.40;;;7.68;;
24587;SDS011;12744;52.270;9.746;2022-08-18T17:17:29;7.95;;;5.95;;
24587;SDS011;12744;52.270;9.746;2022-08-18T17:20:01;11.48;;;10.38;;
24587;SDS011;12744;52.270;9.746;2022-08-18T17:22:33;6.70;;;6.05;;
24587;SDS011;12744;52.270;9.746;2022-08-18T17:25:04;6.05;;;5.45;;
24587;SDS011;12744;52.270;9.746;2022-08-18T17:27:37;8.43;;;5.95;;
24587;SDS011;12744;52.270;9.746;2022-08-18T17:30:16;7.40;;;5.88;;
24587;SDS011;12744;52.270;9.746;2022-08-18T17:32:57;7.60;;;6.68;;
24587;SDS011;12744;52.270;9.746;2022-08-18T17:35:33;11.30;;;10.38;;
24587;SDS011;12744;52.270;9.746;2022-08-18T17:38:31;10.70;;;6.90;;
24587;SDS011;12744;52.270;9.746;2022-08-18T17:41:15;12.65;;;7.57;;
24587;SDS011;12744;52.270;9.746;2022-08-18T17:43:47;8.50;;;6.28;;
24587;SDS011;12744;52.270;9.746;2022-08-18T17:46:22;9.00;;;6.80;;
24587;SDS011;12744;52.270;9.746;2022-08-18T17:49:41;11.27;;;10.07;;
24587;SDS011;12744;52.270;9.746;2022-08-18T17:52:17;9.20;;;7.32;;
24587;SDS011;12744;52.270;9.746;2022-08-18T17:54:52;7.80;;;6.82;;
24587;SDS011;12744;52.270;9.746;2022-08-18T17:57:36;11.63;;;7.60;;
24587;SDS011;12744;52.270;9.746;2022-08-18T18:00:15;9.15;;;7.43;;
24587;SDS011;12744;52.270;9.746;2022-08-18T18:02:47;11.85;;;9.82;;
24587;SDS011;12744;52.270;9.746;2022-08-18T18:05:19;12.13;;;7.35;;
24587;SDS011;12744;52.270;9.746;2022-08-18T18:10:26;12.63;;;8.30;;
24587;SDS011;12744;52.270;9.746;2022-08-18T18:13:07;8.48;;;7.57;;
24587;SDS011;12744;52.270;9.746;2022-08-18T18:15:46;11.98;;;7.72;;
24587;SDS011;12744;52.270;9.746;2022-08-18T18:18:41;11.23;;;7.60;;
24587;SDS011;12744;52.270;9.746;2022-08-18T18:23:49;12.60;;;8.98;;
24587;SDS011;12744;52.270;9.746;2022-08-18T18:26:42;12.20;;;9.32;;